createdAt,value
2022-11-06T00:04:07.232Z,27.23
2022-11-06T00:09:12.855Z,25.27
2022-11-06T00:14:16.262Z,24.10
2022-11-06T00:19:18.776Z,24.83
2022-11-06T00:24:21.180Z,22.93
2022-11-06T00:29:23.680Z,20.77
2022-11-06T00:34:26.071Z,33.23
2022-11-06T00:39:28.458Z,37.77
2022-11-06T00:44:30.845Z,34.97
2022-11-06T00:49:33.261Z,27.53
2022-11-06T00:54:35.655Z,25.23
2022-11-06T00:59:38.044Z,22.83
2022-11-06T01:04:40.497Z,36.93
2022-11-06T01:09:43.005Z,35.33
2022-11-06T01:14:45.750Z,30.50
2022-11-06T01:19:48.211Z,27.63
2022-11-06T01:24:50.657Z,23.93
2022-11-06T01:29:53.101Z,24.20
2022-11-06T01:34:55.499Z,28.03
2022-11-06T01:39:57.849Z,41.37
2022-11-06T01:45:26.094Z,36.17
2022-11-06T01:50:28.730Z,34.60
2022-11-06T01:55:37.008Z,34.57
2022-11-06T02:00:40.375Z,33.40
2022-11-06T02:05:42.910Z,33.80
2022-11-06T02:10:46.362Z,33.57
2022-11-06T02:15:55.409Z,31.83
2022-11-06T02:21:31.637Z,33.87
2022-11-06T02:26:56.628Z,30.90
2022-11-06T02:32:02.793Z,29.33
2022-11-06T02:37:12.113Z,30.83
2022-11-06T02:42:18.771Z,29.07
2022-11-06T02:47:23.548Z,25.67
2022-11-06T02:52:32.541Z,21.10
2022-11-06T02:57:38.673Z,16.90
2022-11-06T03:02:57.218Z,18.20
2022-11-06T03:08:14.159Z,17.97
2022-11-06T03:13:45.360Z,15.23
2022-11-06T03:19:01.898Z,16.87
2022-11-06T03:24:16.607Z,16.63
2022-11-06T03:29:26.902Z,12.37
2022-11-06T03:34:38.470Z,13.63
2022-11-06T03:39:46.673Z,13.77
2022-11-06T03:44:54.856Z,15.33
2022-11-06T03:50:13.772Z,13.63
2022-11-06T03:55:24.899Z,13.93
2022-11-06T04:00:27.308Z,15.73
2022-11-06T04:05:29.863Z,15.60
2022-11-06T04:10:52.441Z,12.33
2022-11-06T04:15:55.563Z,14.03
2022-11-06T04:21:22.574Z,13.20
2022-11-06T04:26:36.095Z,14.07
2022-11-06T04:31:55.602Z,13.10
2022-11-06T04:37:12.342Z,13.50
2022-11-06T04:42:37.366Z,13.47
2022-11-06T04:47:40.097Z,16.57
2022-11-06T04:52:43.560Z,15.50
2022-11-06T04:57:45.995Z,15.67
2022-11-06T05:02:48.395Z,13.20
2022-11-06T05:07:50.766Z,14.67
2022-11-06T05:12:53.206Z,14.00
2022-11-06T05:17:58.239Z,12.83
2022-11-06T05:23:01.093Z,12.43
2022-11-06T05:28:08.443Z,11.53
2022-11-06T05:33:10.805Z,11.00
2022-11-06T05:38:13.500Z,10.83
2022-11-06T05:43:16.270Z,13.80
2022-11-06T05:48:18.676Z,11.87
2022-11-06T05:53:21.067Z,14.80
2022-11-06T05:58:23.492Z,18.37
2022-11-06T06:03:26.773Z,19.90
2022-11-06T06:08:29.092Z,15.40
2022-11-06T06:13:31.514Z,13.93
2022-11-06T06:18:33.910Z,14.70
2022-11-06T06:23:36.401Z,12.57
2022-11-06T06:28:39.160Z,12.47
2022-11-06T06:33:41.571Z,17.27
2022-11-06T06:38:43.938Z,16.07
2022-11-06T06:43:49.523Z,12.37
2022-11-06T06:48:51.894Z,12.33
2022-11-06T06:53:54.244Z,13.00
2022-11-06T06:58:56.686Z,17.93
2022-11-06T07:04:04.015Z,16.93
2022-11-06T07:09:07.205Z,18.23
2022-11-06T07:14:10.992Z,21.90
2022-11-06T07:19:13.443Z,15.63
2022-11-06T07:24:18.142Z,14.47
2022-11-06T07:29:20.718Z,15.10
2022-11-06T07:34:23.144Z,13.53
2022-11-06T07:39:25.532Z,15.27
2022-11-06T07:44:27.936Z,14.13
2022-11-06T07:49:30.402Z,14.40
2022-11-06T07:54:32.733Z,24.07
2022-11-06T07:59:35.163Z,18.40
2022-11-06T08:04:37.593Z,18.50
2022-11-06T08:09:39.973Z,19.93
2022-11-06T08:14:42.454Z,17.30
2022-11-06T08:19:44.980Z,16.33
2022-11-06T08:24:47.398Z,19.10
2022-11-06T08:29:49.888Z,31.93
2022-11-06T08:34:52.256Z,33.83
2022-11-06T08:39:54.691Z,18.43
2022-11-06T08:44:57.055Z,14.50
2022-11-06T08:49:59.400Z,22.53
2022-11-06T08:55:01.988Z,12.10
2022-11-06T09:00:05.136Z,11.67
2022-11-06T09:05:07.792Z,20.43
2022-11-06T09:10:10.270Z,11.33
2022-11-06T09:15:12.739Z,11.80
2022-11-06T09:20:18.168Z,9.93
2022-11-06T09:25:21.861Z,9.67
2022-11-06T09:30:25.903Z,11.97
2022-11-06T09:35:32.162Z,11.17
2022-11-06T09:40:38.243Z,8.13
2022-11-06T09:45:41.238Z,11.10
2022-11-06T09:51:00.132Z,7.77
2022-11-06T09:56:06.506Z,8.50
2022-11-06T10:01:24.542Z,6.40
2022-11-06T10:06:29.602Z,9.93
2022-11-06T10:11:49.632Z,88.03
2022-11-06T10:17:05.190Z,7.90
2022-11-06T10:22:07.571Z,8.97
2022-11-06T10:27:28.204Z,8.70
2022-11-06T10:32:49.689Z,7.33
2022-11-06T10:38:01.065Z,12.63
2022-11-06T10:43:06.446Z,10.00
2022-11-06T10:48:32.479Z,8.60
2022-11-06T10:53:53.657Z,10.87
2022-11-06T10:58:56.135Z,43.97
2022-11-06T11:03:58.659Z,20.07
2022-11-06T11:09:02.034Z,6.87
2022-11-06T11:14:04.559Z,7.00
2022-11-06T11:19:27.418Z,10.67
2022-11-06T11:24:29.898Z,4.73
2022-11-06T11:29:45.293Z,5.40
2022-11-06T11:34:56.791Z,5.20
2022-11-06T11:40:32.562Z,4.20
2022-11-06T11:45:35.062Z,7.47
2022-11-06T11:50:37.513Z,17.80
2022-11-06T11:55:44.677Z,8.93
2022-11-06T12:00:54.666Z,7.03
2022-11-06T12:06:06.711Z,10.07
2022-11-06T12:11:20.001Z,8.87
2022-11-06T12:16:22.476Z,6.77
2022-11-06T12:21:29.246Z,10.87
2022-11-06T12:26:52.074Z,8.77
2022-11-06T12:32:20.916Z,4.67
2022-11-06T12:38:05.923Z,5.27
2022-11-06T12:43:20.627Z,7.83
2022-11-06T12:48:52.658Z,7.30
2022-11-06T12:54:24.857Z,5.70
2022-11-06T13:00:00.326Z,9.77
2022-11-06T13:05:15.449Z,8.97
2022-11-06T13:10:39.376Z,4.83
2022-11-06T13:16:08.616Z,5.00
2022-11-06T13:21:29.321Z,4.10
2022-11-06T13:26:47.620Z,6.70
2022-11-06T13:31:59.012Z,5.50
2022-11-06T13:37:02.805Z,6.63
2022-11-06T13:42:07.991Z,7.17
2022-11-06T13:47:22.189Z,6.43
2022-11-06T13:52:37.783Z,3.60
2022-11-06T13:58:04.630Z,3.97
2022-11-06T14:03:25.047Z,4.27
2022-11-06T14:08:35.567Z,6.30
2022-11-06T14:13:38.765Z,7.33
2022-11-06T14:18:41.983Z,8.57
2022-11-06T14:23:52.673Z,7.10
2022-11-06T14:28:55.104Z,26.97
2022-11-06T14:33:59.478Z,16.07
2022-11-06T14:39:04.080Z,21.77
2022-11-06T14:44:18.365Z,22.90
2022-11-06T14:49:35.615Z,19.37
2022-11-06T14:54:41.090Z,10.97
2022-11-06T14:59:43.910Z,11.50
2022-11-06T15:05:01.462Z,10.40
2022-11-06T15:10:04.490Z,12.53
2022-11-06T15:15:17.462Z,8.30
2022-11-06T15:20:23.231Z,12.60
2022-11-06T15:25:28.075Z,16.63
2022-11-06T15:30:37.828Z,18.10
2022-11-06T15:35:41.143Z,18.17
2022-11-06T15:40:44.793Z,14.27
2022-11-06T15:45:47.170Z,14.80
2022-11-06T15:50:49.573Z,23.20
2022-11-06T15:56:07.252Z,15.33
2022-11-06T16:01:11.447Z,22.17
2022-11-06T16:06:14.074Z,24.40
2022-11-06T16:11:19.549Z,26.30
2022-11-06T16:16:33.905Z,28.33
2022-11-06T16:21:37.085Z,24.60
2022-11-06T16:26:44.629Z,24.07
2022-11-06T16:31:48.441Z,22.70
2022-11-06T16:37:03.700Z,22.57
2022-11-06T16:42:17.699Z,21.90
2022-11-06T16:47:22.752Z,24.90
2022-11-06T16:52:39.185Z,18.60
2022-11-06T16:57:57.508Z,14.90
2022-11-06T17:03:04.118Z,69.17
2022-11-06T17:08:28.613Z,91.60
2022-11-06T17:13:34.116Z,39.07
2022-11-06T17:18:38.396Z,35.77
2022-11-06T17:23:41.302Z,19.90
2022-11-06T17:28:43.842Z,24.00
2022-11-06T17:33:46.769Z,17.97
2022-11-06T17:38:49.500Z,19.33
2022-11-06T17:43:52.470Z,32.97
2022-11-06T17:48:55.547Z,30.63
2022-11-06T17:53:59.021Z,22.87
2022-11-06T17:59:01.448Z,25.13
2022-11-06T18:04:04.100Z,25.43
2022-11-06T18:09:08.059Z,30.77
2022-11-06T18:14:11.535Z,24.20
2022-11-06T18:19:16.761Z,24.87
2022-11-06T18:24:19.202Z,20.23
2022-11-06T18:29:21.661Z,21.57
2022-11-06T18:34:24.133Z,23.07
2022-11-06T18:39:26.609Z,24.10
2022-11-06T18:44:29.911Z,23.80
2022-11-06T18:49:32.345Z,24.73
2022-11-06T18:54:34.854Z,26.37
2022-11-06T18:59:37.260Z,26.63
2022-11-06T19:04:39.816Z,27.53
2022-11-06T19:09:42.344Z,23.43
2022-11-06T19:14:44.761Z,23.40
2022-11-06T19:19:47.733Z,19.83
2022-11-06T19:24:50.135Z,27.30
2022-11-06T19:29:52.718Z,20.97
2022-11-06T19:34:55.053Z,21.97
2022-11-06T19:40:01.439Z,19.77
2022-11-06T19:45:08.913Z,18.90
2022-11-06T19:50:11.337Z,19.90
2022-11-06T19:55:25.024Z,18.60
2022-11-06T20:00:30.027Z,20.03
2022-11-06T20:05:32.703Z,22.20
2022-11-06T20:10:35.739Z,20.40
2022-11-06T20:15:38.208Z,24.70
2022-11-06T20:20:40.608Z,21.37
2022-11-06T20:25:42.967Z,22.13
2022-11-06T20:30:45.335Z,20.80
2022-11-06T20:35:47.828Z,22.27
2022-11-06T20:40:54.995Z,21.63
2022-11-06T20:46:01.764Z,21.87
2022-11-06T20:51:07.323Z,19.20
2022-11-06T20:56:11.788Z,17.30
2022-11-06T21:01:19.880Z,18.57
2022-11-06T21:06:24.355Z,23.17
2022-11-06T21:11:28.177Z,21.20
2022-11-06T21:16:36.275Z,22.27
2022-11-06T21:21:38.919Z,61.17
2022-11-06T21:26:41.710Z,34.93
2022-11-06T21:31:49.059Z,30.80
2022-11-06T21:36:52.141Z,49.87
2022-11-06T21:41:54.564Z,53.43
2022-11-06T21:46:57.167Z,52.73
2022-11-06T21:52:19.539Z,44.43
2022-11-06T21:57:23.169Z,35.47
2022-11-06T22:02:25.683Z,34.43
2022-11-06T22:07:28.133Z,38.00
2022-11-06T22:12:30.493Z,38.53
2022-11-06T22:17:33.085Z,39.93
2022-11-06T22:22:35.474Z,43.50
2022-11-06T22:27:40.850Z,38.17
2022-11-06T22:32:43.586Z,45.37
2022-11-06T22:37:45.971Z,36.03
2022-11-06T22:42:50.008Z,35.27
2022-11-06T22:47:54.351Z,32.20
2022-11-06T22:52:56.695Z,27.03
2022-11-06T22:57:59.310Z,24.80
2022-11-06T23:03:02.102Z,20.50
2022-11-06T23:08:04.764Z,19.00
2022-11-06T23:13:07.137Z,20.77
2022-11-06T23:18:09.667Z,18.77
2022-11-06T23:23:12.119Z,18.80
2022-11-06T23:28:14.622Z,18.30
2022-11-06T23:33:17.304Z,18.00
2022-11-06T23:38:19.783Z,17.97
2022-11-06T23:43:22.153Z,19.33
2022-11-06T23:48:24.763Z,19.20
2022-11-06T23:53:27.100Z,17.47
2022-11-06T23:58:29.492Z,19.50
